CDT,Max TemperatureF,Mean TemperatureF,Min TemperatureF,Max Dew PointF,MeanDew PointF,Min DewpointF,Max Humidity, Mean Humidity, Min Humidity, Max Sea Level PressureIn, Mean Sea Level PressureIn, Min Sea Level PressureIn, Max VisibilityMiles, Mean VisibilityMiles, Min VisibilityMiles, Max Wind SpeedMPH, Mean Wind SpeedMPH, Max Gust SpeedMPH,PrecipitationIn, CloudCover, Events, WindDirDegrees
2013-8-1,90,77,64,69,66,64,100,72,44,30.12,30.06,29.97,10,6,0,9,2,29,0.00,0,Fog,70
2013-8-2,86,77,68,75,71,66,93,81,69,29.99,29.92,29.87,10,10,8,17,7,25,0.00,0,,180
2013-8-3,88,78,68,75,70,66,100,80,59,30.16,30.05,29.88,10,8,2,22,5,31,0.92,5,Rain-Thunderstorm,114
2013-8-4,80,76,72,75,72,69,100,85,69,30.13,30.06,29.99,10,10,9,15,3,20,T,3,Rain,90
2013-8-5,91,83,74,76,73,68,87,75,63,30.01,29.93,29.85,10,10,10,16,8,24,0.01,2,Rain,187
2013-8-6,92,83,74,76,73,71,87,72,56,29.90,29.85,29.81,10,10,10,17,5,35,0.00,1,,175
2013-8-7,92,83,74,77,73,69,97,77,56,29.93,29.87,29.81,10,10,10,14,5,29,0.00,1,Thunderstorm,123
2013-8-8,87,78,68,76,71,66,100,81,61,30.01,29.91,29.81,10,8,1,40,5,48,1.19,6,Rain-Thunderstorm,36
2013-8-9,83,77,70,72,70,69,100,83,65,30.03,29.98,29.91,10,9,5,14,3,20,0.40,5,Rain-Thunderstorm,242
2013-8-10,83,77,71,73,71,69,100,85,69,30.13,30.07,30.01,10,10,4,14,4,17,0.10,6,Rain-Thunderstorm,56
2013-8-11,88,79,69,74,71,68,97,77,57,30.11,30.05,30.01,10,10,8,10,2,14,0.00,4,,265
2013-8-12,86,78,70,73,71,68,100,83,65,30.09,30.02,29.95,10,9,4,26,3,32,T,3,Rain-Thunderstorm,42
2013-8-13,80,73,66,70,69,65,100,85,69,30.08,30.02,29.97,10,10,5,14,2,18,0.20,6,Rain,110
2013-8-14,79,69,58,64,60,56,100,74,47,30.13,30.08,30.05,10,10,9,14,4,17,0.00,1,,67
2013-8-15,77,65,53,60,55,52,100,72,43,30.15,30.09,30.02,10,6,0,10,2,20,0.00,1,Fog,64
2013-8-16,77,67,56,60,58,56,97,74,50,30.13,30.08,30.04,10,10,7,8,1,15,0.00,2,,45
2013-8-17,79,66,52,62,57,52,100,74,48,30.17,30.12,30.06,10,5,0,12,3,17,0.00,1,Fog,68
2013-8-18,83,70,56,65,60,55,100,74,47,30.16,30.10,30.05,10,6,0,10,2,22,0.00,1,Fog,75
2013-8-19,85,71,57,66,61,57,100,72,44,30.14,30.08,30.01,10,7,1,7,1,9,0.00,2,,145
2013-8-20,85,72,59,66,62,59,100,72,44,30.10,30.06,30.02,10,8,1,10,2,13,0.00,1,,172
2013-8-21,89,74,58,67,63,59,100,72,43,30.12,30.08,30.05,10,8,2,15,3,18,0.00,1,,172
2013-8-22,91,76,60,72,64,60,100,71,41,30.14,30.08,30.02,10,7,0,10,1,14,0.00,1,Fog,177
2013-8-23,91,76,61,70,65,58,100,67,34,30.09,30.06,29.99,10,5,0,9,2,16,0.00,1,Fog,79
2013-8-24,91,78,65,70,68,64,100,72,44,30.14,30.10,30.04,10,9,4,10,3,16,0.00,0,,112
2013-8-25,93,80,66,70,68,65,100,71,41,30.20,30.16,30.13,10,9,5,12,3,25,0.00,0,,126
2013-8-26,91,79,66,70,68,64,100,72,44,30.21,30.16,30.10,10,10,5,14,4,18,0.00,0,,178
2013-8-27,91,76,61,67,64,60,100,69,38,30.14,30.09,30.03,10,8,1,13,3,16,0.00,1,,188
2013-8-28,94,79,64,69,66,63,100,71,41,30.08,30.05,30.01,10,10,8,15,4,21,0.00,1,,217
2013-8-29,96,81,65,72,67,64,93,66,39,30.08,30.03,29.98,10,10,10,13,2,18,0.00,2,,223
2013-8-30,96,82,67,71,68,63,100,68,36,30.01,29.95,29.88,10,10,8,14,3,18,0.00,1,Thunderstorm,219
2013-8-31,98,83,67,69,66,62,100,66,31,29.92,29.86,29.81,10,9,6,16,4,20,0.00,1,,204